Text analysis for Donovan (zero_coolest)

Return to profile of Donovan (zero_coolest)

View texts not yet raced by Donovan (zero_coolest)

Sorted by best race

Rank Text Best WPM Overall Difficulty Relative Speed Text Length Races Average WPM Last race
1. write can eye may move great like the open down mean need wh... 121.60 1.0581 0.2308 97 1 121.60 2025-01-17
2. even than mean place move high world person go develop of an... 106.83 1.0505 0.0828 104 1 106.83 2025-01-17
3. without do few tell at under under show group after would ge... 105.67 1.0463 0.0739 130 1 105.67 2025-01-17
4. but again move another which course last both see for child ... 102.57 1.0292 0.0539 252 1 102.57 2025-01-17
5. some thing tell say who more even use follow right system wi... 100.39 1.0240 0.0386 136 1 100.39 2025-01-17
6. while both new those there state will program will system sh... 99.60 1.0127 0.0447 146 1 99.60 2025-01-17
7. some also just into about large however begin seem just each... 99.51 1.0097 0.0446 143 1 99.51 2025-01-17
8. and develop real give consider call between way place place ... 98.56 0.9905 0.0572 107 1 98.56 2025-01-17
9. like against last one take end those great move should old h... 96.28 1.0402 -0.0188 140 1 96.28 2025-01-17
10. high move that still of show while into call line system lat... 96.04 1.0422 -0.0168 94 1 96.04 2025-01-17
11. end right even part part write also need here think day tell... 95.02 1.0235 -0.0118 138 1 95.02 2025-01-17
12. then write number each time ask last this play have thing la... 94.17 1.0667 -0.0670 102 1 94.17 2025-01-17
13. both consider early group word about against year man house ... 92.77 1.0247 -0.0427 139 1 92.77 2025-01-17
14. after open can stand keep as good each against long and litt... 91.98 1.0383 -0.0656 138 1 91.98 2025-01-17
15. this general little all high a want how possible person firs... 87.19 1.0363 -0.1101 110 1 87.19 2025-01-17
16. leave because part general also word how that in program man... 86.66 1.0232 -0.1048 107 1 86.66 2025-01-17
17. but change more around over into now come without see into s... 85.60 1.0339 -0.1278 137 1 85.60 2025-01-17
18. problem from general hold and at if child for want public sc... 80.83 1.0057 -0.1507 131 1 80.83 2025-01-17
19. feel run show both possible other nation if hand system very... 73.39 1.0244 -0.2469 107 1 73.39 2025-01-17
20. go same more who I call up little seem tell little become of... 73.38 1.0462 -0.2671 131 1 73.38 2025-01-17